< < Back
Terminal Aerodrome Forecast


Current Version              Previous Versions:   1  2  3  4  5  6  7  8  9  

Terminal Aerodrome Forecast

113
FTUS44 KBMX 221700
TAFBHM
TAF
KBHM 221723Z 2218/2318 29005KT P6SM VCSH BKN025
      TEMPO 2218/2220 BKN015
     FM222100 32005KT P6SM BKN050
     FM230100 34004KT P6SM SKC
     FM231500 02008KT P6SM SKC=

Latest METAR

210
SAUS70 KWBC 231400 RRA
MTRBHM
METAR KBHM 231353Z 03006KT 10SM FEW250 17/07 A3003 RMK AO2 SLP163
T01720067


USA.gov is the U.S. government's official web portal to all federal, state and local government web resources and services.